createdAt,value
2017-06-30T00:02:26.180Z,99.56
2017-06-30T00:04:54.812Z,99.50
2017-06-30T00:07:23.215Z,99.56
2017-06-30T00:09:51.628Z,99.53
2017-06-30T00:12:20.054Z,99.81
2017-06-30T00:14:48.467Z,99.94
2017-06-30T00:17:17.585Z,99.60
2017-06-30T00:19:45.979Z,99.69
2017-06-30T00:22:14.396Z,99.67
2017-06-30T00:24:42.803Z,99.63
2017-06-30T00:27:11.219Z,99.73
2017-06-30T00:29:39.635Z,99.83
2017-06-30T00:32:08.056Z,99.94
2017-06-30T00:34:36.452Z,99.90
2017-06-30T00:37:05.091Z,99.79
2017-06-30T00:39:33.498Z,99.82
2017-06-30T00:42:01.883Z,99.91
2017-06-30T00:44:30.304Z,99.73
2017-06-30T00:46:59.105Z,99.55
2017-06-30T00:49:27.524Z,99.68
2017-06-30T00:51:55.914Z,99.54
2017-06-30T00:54:24.331Z,99.49
2017-06-30T00:56:53.136Z,99.24
2017-06-30T00:59:21.552Z,99.07
2017-06-30T01:01:49.962Z,99.01
2017-06-30T01:04:18.480Z,99.05
2017-06-30T01:06:46.964Z,99.06
2017-06-30T01:09:15.367Z,99.27
2017-06-30T01:11:43.794Z,99.45
2017-06-30T01:14:12.204Z,99.49
2017-06-30T01:16:40.786Z,99.53
2017-06-30T01:19:09.206Z,99.39
2017-06-30T01:21:37.648Z,99.27
2017-06-30T01:24:06.073Z,99.20
2017-06-30T01:26:34.480Z,98.97
2017-06-30T01:29:02.908Z,98.90
2017-06-30T01:31:31.310Z,98.86
2017-06-30T01:33:59.856Z,98.91
2017-06-30T01:36:28.259Z,98.80
2017-06-30T01:38:56.661Z,98.62
2017-06-30T01:41:25.091Z,98.69
2017-06-30T01:43:53.900Z,98.74
2017-06-30T01:46:22.314Z,98.75
2017-06-30T01:48:51.079Z,98.71
2017-06-30T01:51:19.511Z,98.74
2017-06-30T01:53:47.916Z,98.77
2017-06-30T01:56:16.353Z,98.58
2017-06-30T01:58:44.746Z,98.52
2017-06-30T02:01:13.562Z,98.69
2017-06-30T02:03:42.355Z,98.63
2017-06-30T02:06:10.772Z,98.89
2017-06-30T02:08:39.177Z,99.26
2017-06-30T02:11:07.596Z,99.29
2017-06-30T02:13:36.030Z,98.85
2017-06-30T02:16:04.435Z,98.37
2017-06-30T02:18:32.843Z,98.14
2017-06-30T02:21:01.520Z,98.03
2017-06-30T02:23:29.947Z,97.91
2017-06-30T02:25:58.338Z,97.84
2017-06-30T02:28:26.958Z,98.06
2017-06-30T02:30:55.767Z,98.21
2017-06-30T02:33:24.179Z,98.39
2017-06-30T02:35:52.600Z,98.42
2017-06-30T02:38:21.394Z,98.52
2017-06-30T02:40:50.312Z,98.44
2017-06-30T02:43:18.700Z,98.67
2017-06-30T02:45:47.113Z,98.78
2017-06-30T02:48:15.510Z,98.33
2017-06-30T02:50:43.933Z,98.58
2017-06-30T02:53:12.326Z,98.59
2017-06-30T02:55:41.088Z,98.82
2017-06-30T02:58:09.878Z,98.78
2017-06-30T03:00:38.778Z,98.67
2017-06-30T03:03:07.281Z,98.65
2017-06-30T03:05:35.692Z,98.56
2017-06-30T03:08:04.119Z,98.53
2017-06-30T03:10:32.516Z,98.54
2017-06-30T03:13:00.941Z,98.24
2017-06-30T03:15:29.366Z,98.11
2017-06-30T03:17:57.933Z,98.04
2017-06-30T03:20:26.724Z,98.00
2017-06-30T03:22:55.521Z,97.97
2017-06-30T03:25:23.941Z,97.98
2017-06-30T03:27:52.332Z,97.81
2017-06-30T03:30:20.752Z,97.77
2017-06-30T03:32:49.634Z,97.76
2017-06-30T03:35:18.435Z,97.72
2017-06-30T03:37:47.227Z,97.66
2017-06-30T03:40:15.637Z,97.62
2017-06-30T03:42:44.046Z,97.64
2017-06-30T03:45:12.800Z,97.81
2017-06-30T03:47:41.214Z,97.69
2017-06-30T03:50:09.618Z,97.47
2017-06-30T03:52:38.321Z,97.54
2017-06-30T03:55:07.118Z,97.27
2017-06-30T03:57:35.689Z,97.31
2017-06-30T04:00:04.496Z,97.19
2017-06-30T04:02:32.900Z,97.01
2017-06-30T04:05:01.324Z,97.14
2017-06-30T04:07:29.711Z,96.88
2017-06-30T04:09:58.127Z,97.00
2017-06-30T04:12:26.528Z,96.84
2017-06-30T04:14:54.942Z,96.66
2017-06-30T04:17:23.349Z,96.79
2017-06-30T04:19:52.547Z,96.71
2017-06-30T04:22:21.414Z,96.83
2017-06-30T04:24:49.806Z,96.71
2017-06-30T04:27:18.615Z,97.04
2017-06-30T04:29:47.005Z,97.06
2017-06-30T04:32:15.478Z,96.99
2017-06-30T04:34:43.862Z,96.86
2017-06-30T04:37:12.342Z,96.88
2017-06-30T04:39:40.750Z,97.11
2017-06-30T04:42:09.509Z,96.99
2017-06-30T04:44:37.913Z,96.99
2017-06-30T04:47:06.309Z,97.07
2017-06-30T04:49:34.727Z,97.28
2017-06-30T04:52:03.514Z,97.26
2017-06-30T04:54:32.016Z,97.37
2017-06-30T04:57:00.802Z,97.32
2017-06-30T04:59:30.023Z,97.30
2017-06-30T05:01:58.830Z,96.78
2017-06-30T05:04:27.225Z,97.13
2017-06-30T05:06:55.629Z,96.99
2017-06-30T05:09:24.023Z,97.06
2017-06-30T05:11:52.832Z,97.09
2017-06-30T05:14:21.244Z,96.97
2017-06-30T05:16:49.654Z,96.47
2017-06-30T05:19:18.051Z,96.91
2017-06-30T05:21:46.862Z,96.73
2017-06-30T05:24:15.272Z,96.70
2017-06-30T05:26:43.819Z,96.55
2017-06-30T05:29:12.215Z,96.19
2017-06-30T05:31:40.628Z,96.35
2017-06-30T05:34:09.035Z,96.25
2017-06-30T05:36:37.424Z,95.97
2017-06-30T05:39:06.373Z,96.38
2017-06-30T05:41:34.788Z,96.30
2017-06-30T05:44:03.200Z,96.04
2017-06-30T05:46:31.585Z,96.05
2017-06-30T05:49:00.160Z,96.34
2017-06-30T05:51:28.564Z,96.32
2017-06-30T05:53:56.957Z,96.41
2017-06-30T05:56:25.381Z,96.34
2017-06-30T05:58:53.770Z,96.19
2017-06-30T06:01:22.592Z,96.40
2017-06-30T06:03:50.978Z,96.26
2017-06-30T06:06:19.399Z,96.46
2017-06-30T06:08:48.838Z,96.23
2017-06-30T06:11:17.415Z,96.03
2017-06-30T06:13:46.219Z,95.62
2017-06-30T06:16:14.895Z,95.65
2017-06-30T06:18:43.324Z,95.52
2017-06-30T06:21:11.736Z,95.46
2017-06-30T06:23:40.559Z,95.07
2017-06-30T06:26:08.955Z,94.85
2017-06-30T06:28:37.371Z,94.83
2017-06-30T06:31:05.762Z,94.26
2017-06-30T06:33:34.368Z,94.28
2017-06-30T06:36:03.159Z,94.51
2017-06-30T06:38:32.053Z,94.25
2017-06-30T06:41:00.474Z,94.28
2017-06-30T06:43:28.874Z,94.67
2017-06-30T06:45:57.303Z,94.11
2017-06-30T06:48:25.705Z,93.61
2017-06-30T06:50:54.129Z,93.71
2017-06-30T06:53:22.518Z,93.75
2017-06-30T06:55:51.330Z,93.55
2017-06-30T06:58:19.713Z,94.14
2017-06-30T07:00:48.293Z,93.87
2017-06-30T07:03:16.683Z,94.26
2017-06-30T07:05:45.074Z,93.93
2017-06-30T07:08:13.488Z,93.53
2017-06-30T07:10:41.899Z,93.04
2017-06-30T07:13:10.708Z,93.47
2017-06-30T07:15:39.394Z,93.08
2017-06-30T07:18:07.818Z,93.47
2017-06-30T07:20:36.225Z,93.62
2017-06-30T07:23:06.061Z,93.35
2017-06-30T07:25:34.467Z,93.47
2017-06-30T07:28:02.873Z,93.87
2017-06-30T07:30:31.290Z,93.88
2017-06-30T07:33:00.078Z,93.49
2017-06-30T07:35:28.897Z,93.62
2017-06-30T07:37:57.871Z,93.53
2017-06-30T07:40:26.675Z,93.87
2017-06-30T07:42:55.085Z,93.20
2017-06-30T07:45:24.304Z,93.75
2017-06-30T07:47:52.696Z,93.23
2017-06-30T07:50:21.312Z,92.48
2017-06-30T07:52:49.697Z,92.63
2017-06-30T07:55:18.099Z,92.37
2017-06-30T07:57:46.515Z,92.43
2017-06-30T08:00:14.919Z,92.50
2017-06-30T08:02:43.727Z,92.18
2017-06-30T08:05:12.122Z,91.35
2017-06-30T08:07:40.642Z,91.50
2017-06-30T08:10:09.038Z,91.60
2017-06-30T08:12:37.451Z,92.08
2017-06-30T08:15:05.868Z,90.73
2017-06-30T08:17:34.519Z,90.24
2017-06-30T08:20:02.951Z,90.32
2017-06-30T08:22:31.368Z,89.75
2017-06-30T08:24:59.794Z,89.47
2017-06-30T08:27:28.699Z,89.98
2017-06-30T08:29:57.125Z,88.60
2017-06-30T08:32:25.549Z,88.08
2017-06-30T08:34:53.996Z,87.91
2017-06-30T08:37:22.477Z,88.26
2017-06-30T08:39:51.012Z,88.15
2017-06-30T08:42:19.411Z,88.04
2017-06-30T08:44:48.270Z,88.19
2017-06-30T08:47:16.695Z,86.37
2017-06-30T08:49:45.626Z,85.79
2017-06-30T08:52:14.050Z,85.83
2017-06-30T08:54:43.684Z,85.91
2017-06-30T08:57:12.619Z,85.79
2017-06-30T08:59:41.017Z,84.89
2017-06-30T09:02:09.410Z,84.90
2017-06-30T09:04:37.827Z,84.77
2017-06-30T09:07:06.240Z,85.13
2017-06-30T09:09:34.672Z,85.12
2017-06-30T09:12:03.466Z,85.14
2017-06-30T09:14:32.296Z,84.96
2017-06-30T09:17:00.698Z,84.46
2017-06-30T09:19:29.210Z,84.04
2017-06-30T09:21:58.013Z,83.71
2017-06-30T09:24:26.583Z,83.53
2017-06-30T09:26:55.500Z,83.05
2017-06-30T09:29:23.987Z,82.41
2017-06-30T09:31:52.418Z,82.25
2017-06-30T09:34:20.815Z,82.70
2017-06-30T09:36:49.924Z,82.78
2017-06-30T09:39:18.730Z,83.19
2017-06-30T09:41:47.161Z,83.83
2017-06-30T09:44:15.572Z,83.91
2017-06-30T09:46:44.409Z,83.39
2017-06-30T09:49:12.851Z,83.87
2017-06-30T09:51:41.637Z,82.77
2017-06-30T09:54:10.436Z,82.65
2017-06-30T09:56:39.005Z,82.52
2017-06-30T09:59:07.862Z,83.88
2017-06-30T10:01:36.283Z,83.50
2017-06-30T10:04:05.457Z,84.38
2017-06-30T10:06:33.866Z,82.77
2017-06-30T10:09:02.442Z,82.24
2017-06-30T10:11:32.119Z,81.39
2017-06-30T10:14:00.537Z,80.99
2017-06-30T10:16:29.346Z,80.79
2017-06-30T10:18:57.763Z,80.10
2017-06-30T10:21:26.183Z,79.94
2017-06-30T10:23:54.986Z,78.89
2017-06-30T10:26:23.412Z,78.67
2017-06-30T10:28:51.820Z,78.70
2017-06-30T10:31:20.352Z,78.13
2017-06-30T10:33:48.756Z,78.49
2017-06-30T10:36:17.155Z,77.44
2017-06-30T10:38:45.570Z,77.46
2017-06-30T10:41:13.974Z,76.46
2017-06-30T10:43:42.398Z,75.82
2017-06-30T10:46:10.807Z,75.92
2017-06-30T10:48:39.225Z,74.81
2017-06-30T10:51:07.639Z,73.73
2017-06-30T10:53:36.070Z,73.83
2017-06-30T10:56:04.471Z,73.05
2017-06-30T10:58:34.043Z,73.52
2017-06-30T11:01:02.460Z,71.94
2017-06-30T11:03:31.213Z,71.94
2017-06-30T11:05:59.648Z,71.26
2017-06-30T11:08:28.059Z,71.86
2017-06-30T11:10:56.493Z,70.74
2017-06-30T11:13:24.905Z,70.81
2017-06-30T11:15:53.516Z,71.70
2017-06-30T11:18:21.923Z,71.66
2017-06-30T11:20:50.327Z,70.55
2017-06-30T11:23:18.788Z,70.85
2017-06-30T11:25:47.191Z,70.41
2017-06-30T11:28:15.614Z,69.19
2017-06-30T11:30:44.118Z,69.09
2017-06-30T11:33:12.779Z,69.71
2017-06-30T11:35:41.575Z,69.99
2017-06-30T11:38:10.397Z,70.72
2017-06-30T11:40:38.812Z,69.40
2017-06-30T11:43:07.244Z,68.22
2017-06-30T11:45:35.668Z,67.80
2017-06-30T11:48:04.400Z,66.43
2017-06-30T11:50:32.949Z,66.40
2017-06-30T11:53:01.353Z,67.83
2017-06-30T11:55:30.161Z,67.17
2017-06-30T11:57:58.579Z,66.55
2017-06-30T12:00:26.985Z,66.27
2017-06-30T12:02:55.471Z,67.23
2017-06-30T12:05:23.862Z,66.21
2017-06-30T12:07:52.687Z,65.69
2017-06-30T12:10:21.089Z,64.46
2017-06-30T12:12:49.937Z,64.68
2017-06-30T12:15:18.347Z,64.04
2017-06-30T12:17:46.752Z,63.04
2017-06-30T12:20:15.300Z,63.48
2017-06-30T12:22:43.695Z,63.06
2017-06-30T12:25:12.116Z,62.47
2017-06-30T12:27:40.535Z,62.21
2017-06-30T12:30:08.955Z,62.48
2017-06-30T12:32:37.380Z,60.90
2017-06-30T12:35:06.895Z,59.84
2017-06-30T12:37:35.309Z,60.18
2017-06-30T12:40:03.955Z,60.02
2017-06-30T12:42:32.757Z,59.98
2017-06-30T12:45:01.164Z,60.77
2017-06-30T12:47:29.790Z,61.67
2017-06-30T12:49:58.194Z,60.87
2017-06-30T12:52:26.629Z,59.66
2017-06-30T12:54:55.040Z,58.57
2017-06-30T12:57:24.247Z,56.57
2017-06-30T12:59:53.041Z,57.33
2017-06-30T13:02:21.455Z,57.87
2017-06-30T13:04:49.893Z,58.68
2017-06-30T13:07:18.701Z,58.94
2017-06-30T13:09:47.277Z,58.67
2017-06-30T13:12:15.959Z,58.59
2017-06-30T13:14:44.756Z,58.10
2017-06-30T13:17:13.188Z,56.35
2017-06-30T13:19:41.592Z,55.01
2017-06-30T13:22:10.101Z,54.44
2017-06-30T13:24:38.524Z,54.32
2017-06-30T13:27:07.163Z,53.77
2017-06-30T13:29:35.577Z,54.25
2017-06-30T13:32:04.413Z,54.23
2017-06-30T13:34:32.838Z,55.17
2017-06-30T13:37:01.247Z,56.92
2017-06-30T13:39:29.676Z,61.08
2017-06-30T13:41:58.102Z,66.28
2017-06-30T13:44:26.530Z,69.50
2017-06-30T13:46:55.327Z,72.70
2017-06-30T13:49:24.116Z,72.02
2017-06-30T13:51:52.524Z,71.53
2017-06-30T13:54:20.941Z,68.01
2017-06-30T13:56:49.365Z,67.60
2017-06-30T13:59:17.775Z,65.63
2017-06-30T14:01:46.524Z,65.78
2017-06-30T14:04:14.936Z,67.82
2017-06-30T14:06:43.352Z,69.00
2017-06-30T14:09:11.748Z,71.50
2017-06-30T14:11:40.564Z,76.28
2017-06-30T14:14:08.974Z,80.58
2017-06-30T14:16:38.278Z,80.46
2017-06-30T14:19:06.688Z,83.13
2017-06-30T14:21:35.086Z,83.15
2017-06-30T14:24:03.898Z,84.36
2017-06-30T14:26:32.303Z,83.58
2017-06-30T14:29:00.726Z,83.11
2017-06-30T14:31:29.134Z,83.59
2017-06-30T14:33:57.567Z,85.31
2017-06-30T14:36:26.019Z,89.44
2017-06-30T14:38:54.680Z,89.72
2017-06-30T14:41:23.089Z,90.75
2017-06-30T14:43:51.490Z,90.14
2017-06-30T14:46:19.907Z,90.05
2017-06-30T14:48:48.694Z,89.23
2017-06-30T14:51:17.514Z,88.30
2017-06-30T14:53:45.916Z,87.68
2017-06-30T14:56:14.352Z,88.08
2017-06-30T14:58:43.255Z,88.59
2017-06-30T15:01:11.936Z,88.16
2017-06-30T15:03:40.726Z,88.65
2017-06-30T15:06:09.519Z,87.73
2017-06-30T15:08:37.948Z,88.08
2017-06-30T15:11:06.350Z,87.49
2017-06-30T15:13:34.860Z,87.56
2017-06-30T15:16:03.268Z,86.02
2017-06-30T15:18:31.690Z,85.21
2017-06-30T15:21:00.090Z,85.22
2017-06-30T15:23:29.204Z,84.02
2017-06-30T15:25:57.616Z,82.71
2017-06-30T15:28:26.052Z,81.70
2017-06-30T15:30:54.863Z,81.38
2017-06-30T15:33:23.267Z,81.35
2017-06-30T15:35:51.717Z,82.04
2017-06-30T15:38:20.122Z,81.05
2017-06-30T15:40:48.548Z,80.18
2017-06-30T15:43:16.950Z,81.55
2017-06-30T15:45:45.741Z,80.51
2017-06-30T15:48:14.178Z,79.29
2017-06-30T15:50:42.585Z,79.24
2017-06-30T15:53:11.415Z,77.84
2017-06-30T15:55:39.818Z,77.28
2017-06-30T15:58:08.256Z,77.37
2017-06-30T16:00:36.668Z,76.85
2017-06-30T16:03:05.104Z,76.83
2017-06-30T16:05:33.914Z,76.93
2017-06-30T16:08:02.501Z,76.56
2017-06-30T16:10:31.005Z,76.44
2017-06-30T16:12:59.425Z,76.98
2017-06-30T16:15:27.857Z,78.69
2017-06-30T16:17:56.391Z,79.71
2017-06-30T16:20:24.816Z,79.46
2017-06-30T16:22:53.218Z,81.16
2017-06-30T16:25:21.758Z,86.28
2017-06-30T16:27:50.454Z,92.29
2017-06-30T16:30:18.872Z,95.46
2017-06-30T16:32:47.616Z,96.20
2017-06-30T16:35:16.420Z,96.46
2017-06-30T16:37:44.853Z,95.68
2017-06-30T16:40:13.260Z,96.76
2017-06-30T16:42:42.416Z,96.00
2017-06-30T16:45:10.825Z,95.28
2017-06-30T16:47:39.642Z,94.52
2017-06-30T16:50:08.084Z,94.04
2017-06-30T16:52:36.496Z,93.60
2017-06-30T16:55:05.309Z,93.13
2017-06-30T16:57:33.781Z,93.83
2017-06-30T17:00:02.196Z,94.38
2017-06-30T17:02:30.590Z,95.10
2017-06-30T17:04:59.431Z,95.69
2017-06-30T17:07:27.838Z,95.61
2017-06-30T17:09:56.265Z,96.41
2017-06-30T17:12:25.072Z,96.23
2017-06-30T17:14:53.476Z,96.51
2017-06-30T17:17:21.905Z,96.87
2017-06-30T17:19:50.416Z,96.96
2017-06-30T17:22:18.843Z,97.03
2017-06-30T17:24:47.248Z,96.44
2017-06-30T17:27:15.761Z,95.80
2017-06-30T17:29:44.181Z,95.45
2017-06-30T17:32:13.331Z,95.70
2017-06-30T17:34:42.140Z,96.02
2017-06-30T17:37:10.580Z,96.23
2017-06-30T17:39:39.011Z,95.81
2017-06-30T17:42:07.421Z,95.80
2017-06-30T17:44:35.853Z,95.58
2017-06-30T17:47:04.272Z,95.66
2017-06-30T17:49:32.695Z,95.94
2017-06-30T17:52:02.135Z,95.23
2017-06-30T17:54:30.802Z,95.25
2017-06-30T17:56:59.212Z,95.10
2017-06-30T17:59:27.625Z,94.72
2017-06-30T18:01:56.061Z,94.25
2017-06-30T18:04:24.480Z,93.93
2017-06-30T18:06:52.902Z,94.05
2017-06-30T18:09:21.316Z,94.02
2017-06-30T18:11:49.745Z,93.71
2017-06-30T18:14:18.158Z,93.68
2017-06-30T18:16:47.342Z,93.11
2017-06-30T18:19:16.158Z,93.44
2017-06-30T18:21:44.556Z,92.12
2017-06-30T18:24:12.979Z,91.90
2017-06-30T18:26:41.792Z,91.43
2017-06-30T18:29:10.221Z,91.53
2017-06-30T18:31:40.233Z,90.91
2017-06-30T18:34:08.661Z,91.07
2017-06-30T18:36:37.470Z,90.74
2017-06-30T18:39:06.256Z,91.17
2017-06-30T18:41:34.671Z,91.16
2017-06-30T18:44:03.070Z,90.76
2017-06-30T18:46:31.504Z,90.40
2017-06-30T18:48:59.903Z,90.48
2017-06-30T18:51:28.341Z,90.25
2017-06-30T18:53:57.159Z,90.66
2017-06-30T18:56:25.721Z,90.18
2017-06-30T18:58:54.124Z,90.66
2017-06-30T19:01:22.540Z,91.29
2017-06-30T19:03:51.017Z,91.44
2017-06-30T19:06:19.434Z,91.91
2017-06-30T19:08:48.252Z,91.54
2017-06-30T19:11:16.647Z,91.31
2017-06-30T19:13:45.078Z,91.28
2017-06-30T19:16:13.885Z,91.33
2017-06-30T19:18:42.328Z,91.21
2017-06-30T19:21:10.741Z,91.27
2017-06-30T19:23:39.675Z,91.48
2017-06-30T19:26:08.080Z,91.51
2017-06-30T19:28:36.486Z,91.60
2017-06-30T19:31:05.291Z,92.09
2017-06-30T19:33:33.696Z,92.22
2017-06-30T19:36:02.120Z,92.05
2017-06-30T19:38:30.525Z,92.33
2017-06-30T19:40:59.335Z,92.31
2017-06-30T19:43:27.740Z,92.57
2017-06-30T19:45:56.596Z,92.41
2017-06-30T19:48:25.017Z,92.36
2017-06-30T19:50:53.427Z,92.61
2017-06-30T19:53:21.879Z,93.06
2017-06-30T19:55:50.302Z,93.06
2017-06-30T19:58:19.120Z,93.22
2017-06-30T20:00:47.535Z,93.47
2017-06-30T20:03:16.266Z,93.75
2017-06-30T20:05:45.076Z,94.01
2017-06-30T20:08:13.500Z,94.02
2017-06-30T20:10:41.933Z,94.07
2017-06-30T20:13:10.494Z,94.09
2017-06-30T20:15:39.284Z,94.22
2017-06-30T20:18:08.083Z,93.96
2017-06-30T20:20:36.911Z,94.07
2017-06-30T20:23:05.316Z,93.81
2017-06-30T20:25:33.731Z,93.64
2017-06-30T20:28:02.527Z,93.58
2017-06-30T20:30:30.967Z,93.37
2017-06-30T20:32:59.376Z,93.38
2017-06-30T20:35:28.389Z,93.57
2017-06-30T20:37:57.417Z,93.45
2017-06-30T20:40:25.891Z,93.22
2017-06-30T20:42:54.309Z,92.95
2017-06-30T20:45:22.729Z,93.07
2017-06-30T20:47:51.156Z,92.57
2017-06-30T20:50:19.568Z,92.70
2017-06-30T20:52:48.591Z,92.58
2017-06-30T20:55:16.991Z,92.52
2017-06-30T20:57:45.398Z,92.43
2017-06-30T21:00:13.845Z,92.39
2017-06-30T21:02:42.259Z,92.43
2017-06-30T21:05:10.684Z,92.60
2017-06-30T21:07:39.097Z,92.50
2017-06-30T21:10:07.719Z,92.63
2017-06-30T21:12:36.120Z,92.58
2017-06-30T21:15:04.922Z,92.57
2017-06-30T21:17:33.353Z,92.60
2017-06-30T21:20:01.759Z,92.59
2017-06-30T21:22:30.596Z,92.64
2017-06-30T21:24:59.012Z,92.62
2017-06-30T21:27:27.436Z,92.55
2017-06-30T21:29:55.848Z,92.75
2017-06-30T21:32:24.322Z,92.84
2017-06-30T21:34:52.722Z,92.87
2017-06-30T21:37:21.365Z,93.07
2017-06-30T21:39:49.788Z,93.16
2017-06-30T21:42:18.222Z,93.25
2017-06-30T21:44:46.656Z,93.23
2017-06-30T21:47:15.069Z,93.41
2017-06-30T21:49:43.882Z,93.42
2017-06-30T21:52:12.294Z,93.40
2017-06-30T21:54:41.054Z,93.48
2017-06-30T21:57:10.250Z,93.59
2017-06-30T21:59:38.670Z,93.75
2017-06-30T22:02:07.130Z,93.90
2017-06-30T22:04:35.534Z,93.93
2017-06-30T22:07:03.950Z,93.99
2017-06-30T22:09:32.764Z,94.17
2017-06-30T22:12:01.188Z,94.26
2017-06-30T22:14:29.609Z,94.46
2017-06-30T22:16:58.428Z,94.48
2017-06-30T22:19:26.826Z,94.65
2017-06-30T22:21:55.375Z,94.69
2017-06-30T22:24:23.775Z,94.66
2017-06-30T22:26:52.186Z,94.76
2017-06-30T22:29:20.611Z,94.78
2017-06-30T22:31:49.018Z,94.73
2017-06-30T22:34:17.436Z,94.64
2017-06-30T22:36:45.843Z,94.47
2017-06-30T22:39:14.655Z,94.47
2017-06-30T22:41:43.057Z,94.65
2017-06-30T22:44:11.482Z,94.69
2017-06-30T22:46:40.293Z,94.75
2017-06-30T22:49:08.711Z,94.76
2017-06-30T22:51:37.122Z,94.83
2017-06-30T22:54:05.704Z,94.97
2017-06-30T22:56:34.106Z,95.12
2017-06-30T22:59:02.920Z,95.17
2017-06-30T23:01:31.343Z,95.08
2017-06-30T23:03:59.756Z,95.07
2017-06-30T23:06:28.592Z,95.07
2017-06-30T23:08:57.509Z,95.14
2017-06-30T23:11:26.132Z,94.88
2017-06-30T23:13:54.930Z,94.55
2017-06-30T23:16:23.336Z,94.29
2017-06-30T23:18:51.776Z,94.13
2017-06-30T23:21:20.671Z,93.99
2017-06-30T23:23:49.510Z,93.62
2017-06-30T23:26:17.930Z,93.48
2017-06-30T23:28:46.756Z,93.62
2017-06-30T23:31:15.163Z,93.58
2017-06-30T23:33:43.697Z,93.44
2017-06-30T23:36:12.495Z,93.43
2017-06-30T23:38:41.629Z,93.21
2017-06-30T23:41:10.061Z,93.27
2017-06-30T23:43:38.878Z,93.29
2017-06-30T23:46:07.297Z,93.65
2017-06-30T23:48:35.710Z,94.00
2017-06-30T23:51:04.538Z,94.38
2017-06-30T23:53:32.955Z,94.63
2017-06-30T23:56:01.446Z,94.81
2017-06-30T23:58:29.857Z,94.89
